sensor_id;sensor_type;location;lat;lon;timestamp;P1;durP1;ratioP1;P2;durP2;ratioP2
3297;SDS011;1661;53.572;10.174;2023-06-19T00:02:01;12.00;;;8.70;;
3297;SDS011;1661;53.572;10.174;2023-06-19T00:04:27;14.60;;;9.40;;
3297;SDS011;1661;53.572;10.174;2023-06-19T00:06:54;9.30;;;8.50;;
3297;SDS011;1661;53.572;10.174;2023-06-19T00:09:22;9.00;;;8.10;;
3297;SDS011;1661;53.572;10.174;2023-06-19T00:11:49;10.77;;;9.80;;
3297;SDS011;1661;53.572;10.174;2023-06-19T00:14:16;10.20;;;9.20;;
3297;SDS011;1661;53.572;10.174;2023-06-19T00:16:43;8.53;;;7.83;;
3297;SDS011;1661;53.572;10.174;2023-06-19T00:19:10;9.93;;;8.93;;
3297;SDS011;1661;53.572;10.174;2023-06-19T00:21:37;8.63;;;7.97;;
3297;SDS011;1661;53.572;10.174;2023-06-19T00:24:04;10.90;;;9.93;;
3297;SDS011;1661;53.572;10.174;2023-06-19T00:26:33;10.37;;;9.37;;
3297;SDS011;1661;53.572;10.174;2023-06-19T00:28:59;9.20;;;8.40;;
3297;SDS011;1661;53.572;10.174;2023-06-19T00:31:27;9.13;;;8.43;;
3297;SDS011;1661;53.572;10.174;2023-06-19T00:33:53;9.63;;;8.63;;
3297;SDS011;1661;53.572;10.174;2023-06-19T00:36:21;12.13;;;9.37;;
3297;SDS011;1661;53.572;10.174;2023-06-19T00:38:50;9.73;;;8.93;;
3297;SDS011;1661;53.572;10.174;2023-06-19T00:41:18;9.27;;;8.30;;
3297;SDS011;1661;53.572;10.174;2023-06-19T00:43:47;10.13;;;9.00;;
3297;SDS011;1661;53.572;10.174;2023-06-19T00:46:14;10.10;;;9.37;;
3297;SDS011;1661;53.572;10.174;2023-06-19T00:48:41;9.77;;;8.93;;
3297;SDS011;1661;53.572;10.174;2023-06-19T00:51:07;8.70;;;8.10;;
3297;SDS011;1661;53.572;10.174;2023-06-19T00:53:34;8.67;;;7.77;;
3297;SDS011;1661;53.572;10.174;2023-06-19T00:56:01;12.53;;;9.07;;
3297;SDS011;1661;53.572;10.174;2023-06-19T00:58:30;10.37;;;9.47;;
3297;SDS011;1661;53.572;10.174;2023-06-19T01:00:59;11.77;;;9.47;;
3297;SDS011;1661;53.572;10.174;2023-06-19T01:03:25;18.63;;;9.10;;
3297;SDS011;1661;53.572;10.174;2023-06-19T01:05:52;8.80;;;8.00;;
3297;SDS011;1661;53.572;10.174;2023-06-19T01:08:26;8.90;;;8.20;;
3297;SDS011;1661;53.572;10.174;2023-06-19T01:11:08;8.97;;;8.17;;
3297;SDS011;1661;53.572;10.174;2023-06-19T01:13:38;10.00;;;9.03;;
3297;SDS011;1661;53.572;10.174;2023-06-19T01:16:11;9.97;;;9.07;;
3297;SDS011;1661;53.572;10.174;2023-06-19T01:18:38;10.30;;;9.40;;
3297;SDS011;1661;53.572;10.174;2023-06-19T01:21:09;10.30;;;9.30;;
3297;SDS011;1661;53.572;10.174;2023-06-19T01:23:38;8.40;;;7.70;;
3297;SDS011;1661;53.572;10.174;2023-06-19T01:26:05;10.93;;;9.97;;
3297;SDS011;1661;53.572;10.174;2023-06-19T01:28:33;11.87;;;10.87;;
3297;SDS011;1661;53.572;10.174;2023-06-19T01:31:02;11.50;;;9.17;;
3297;SDS011;1661;53.572;10.174;2023-06-19T01:33:32;9.83;;;8.93;;
3297;SDS011;1661;53.572;10.174;2023-06-19T01:36:02;10.50;;;9.70;;
3297;SDS011;1661;53.572;10.174;2023-06-19T01:38:31;9.50;;;8.27;;
3297;SDS011;1661;53.572;10.174;2023-06-19T01:40:59;10.67;;;8.97;;
3297;SDS011;1661;53.572;10.174;2023-06-19T01:43:28;9.63;;;8.83;;
3297;SDS011;1661;53.572;10.174;2023-06-19T01:45:57;11.03;;;10.03;;
3297;SDS011;1661;53.572;10.174;2023-06-19T01:48:24;11.33;;;10.10;;
3297;SDS011;1661;53.572;10.174;2023-06-19T01:50:51;9.33;;;8.53;;
3297;SDS011;1661;53.572;10.174;2023-06-19T01:53:18;11.53;;;10.43;;
3297;SDS011;1661;53.572;10.174;2023-06-19T01:55:45;10.20;;;9.30;;
3297;SDS011;1661;53.572;10.174;2023-06-19T01:58:13;10.03;;;9.23;;
3297;SDS011;1661;53.572;10.174;2023-06-19T02:00:40;11.27;;;10.17;;
3297;SDS011;1661;53.572;10.174;2023-06-19T02:03:07;11.23;;;10.13;;
3297;SDS011;1661;53.572;10.174;2023-06-19T02:05:34;11.47;;;10.27;;
3297;SDS011;1661;53.572;10.174;2023-06-19T02:08:04;14.80;;;11.13;;
3297;SDS011;1661;53.572;10.174;2023-06-19T02:10:31;10.70;;;9.70;;
3297;SDS011;1661;53.572;10.174;2023-06-19T02:12:58;10.80;;;9.70;;
3297;SDS011;1661;53.572;10.174;2023-06-19T02:15:26;10.00;;;8.80;;
3297;SDS011;1661;53.572;10.174;2023-06-19T02:17:53;10.80;;;9.80;;
3297;SDS011;1661;53.572;10.174;2023-06-19T02:20:21;12.83;;;11.50;;
3297;SDS011;1661;53.572;10.174;2023-06-19T02:22:49;16.73;;;11.00;;
3297;SDS011;1661;53.572;10.174;2023-06-19T02:25:16;11.60;;;10.63;;
3297;SDS011;1661;53.572;10.174;2023-06-19T02:27:43;14.13;;;11.13;;
3297;SDS011;1661;53.572;10.174;2023-06-19T02:30:10;12.20;;;11.07;;
3297;SDS011;1661;53.572;10.174;2023-06-19T02:32:39;11.67;;;10.57;;
3297;SDS011;1661;53.572;10.174;2023-06-19T02:35:06;13.23;;;12.00;;
3297;SDS011;1661;53.572;10.174;2023-06-19T02:37:35;11.37;;;10.27;;
3297;SDS011;1661;53.572;10.174;2023-06-19T02:40:02;12.10;;;10.90;;
3297;SDS011;1661;53.572;10.174;2023-06-19T02:42:31;11.30;;;10.27;;
3297;SDS011;1661;53.572;10.174;2023-06-19T02:44:58;12.20;;;10.90;;
3297;SDS011;1661;53.572;10.174;2023-06-19T02:47:28;11.03;;;10.20;;
3297;SDS011;1661;53.572;10.174;2023-06-19T02:49:56;12.20;;;10.40;;
3297;SDS011;1661;53.572;10.174;2023-06-19T02:52:23;11.60;;;10.63;;
3297;SDS011;1661;53.572;10.174;2023-06-19T02:54:50;14.50;;;10.47;;
3297;SDS011;1661;53.572;10.174;2023-06-19T02:57:17;12.97;;;11.77;;
3297;SDS011;1661;53.572;10.174;2023-06-19T02:59:44;13.43;;;12.17;;
3297;SDS011;1661;53.572;10.174;2023-06-19T03:02:11;13.33;;;12.13;;
3297;SDS011;1661;53.572;10.174;2023-06-19T03:04:39;11.40;;;10.50;;
3297;SDS011;1661;53.572;10.174;2023-06-19T03:07:07;13.00;;;10.93;;
3297;SDS011;1661;53.572;10.174;2023-06-19T03:09:34;11.27;;;10.17;;
3297;SDS011;1661;53.572;10.174;2023-06-19T03:12:01;12.27;;;10.97;;
3297;SDS011;1661;53.572;10.174;2023-06-19T03:14:27;14.77;;;10.57;;
3297;SDS011;1661;53.572;10.174;2023-06-19T03:16:54;12.03;;;11.03;;
3297;SDS011;1661;53.572;10.174;2023-06-19T03:19:21;13.17;;;11.93;;
3297;SDS011;1661;53.572;10.174;2023-06-19T03:21:48;12.53;;;11.47;;
3297;SDS011;1661;53.572;10.174;2023-06-19T03:24:16;12.10;;;11.00;;
3297;SDS011;1661;53.572;10.174;2023-06-19T03:26:43;12.47;;;11.53;;
3297;SDS011;1661;53.572;10.174;2023-06-19T03:29:10;13.33;;;12.23;;
3297;SDS011;1661;53.572;10.174;2023-06-19T03:31:37;14.00;;;12.70;;
3297;SDS011;1661;53.572;10.174;2023-06-19T03:34:05;14.10;;;12.60;;
3297;SDS011;1661;53.572;10.174;2023-06-19T03:36:32;11.43;;;10.43;;
3297;SDS011;1661;53.572;10.174;2023-06-19T03:38:59;13.13;;;11.80;;
3297;SDS011;1661;53.572;10.174;2023-06-19T03:41:27;11.47;;;10.43;;
3297;SDS011;1661;53.572;10.174;2023-06-19T03:43:54;12.77;;;11.60;;
3297;SDS011;1661;53.572;10.174;2023-06-19T03:46:20;10.13;;;9.33;;
3297;SDS011;1661;53.572;10.174;2023-06-19T03:48:47;12.57;;;11.47;;
3297;SDS011;1661;53.572;10.174;2023-06-19T03:51:14;12.30;;;11.40;;
3297;SDS011;1661;53.572;10.174;2023-06-19T03:53:41;17.93;;;11.50;;
3297;SDS011;1661;53.572;10.174;2023-06-19T03:56:08;14.60;;;11.37;;
3297;SDS011;1661;53.572;10.174;2023-06-19T03:58:36;11.90;;;10.77;;
3297;SDS011;1661;53.572;10.174;2023-06-19T04:01:03;15.20;;;11.77;;
3297;SDS011;1661;53.572;10.174;2023-06-19T04:03:30;14.50;;;13.20;;
3297;SDS011;1661;53.572;10.174;2023-06-19T04:05:57;13.30;;;12.00;;
3297;SDS011;1661;53.572;10.174;2023-06-19T04:08:24;13.63;;;12.33;;
3297;SDS011;1661;53.572;10.174;2023-06-19T04:10:51;13.13;;;12.03;;
3297;SDS011;1661;53.572;10.174;2023-06-19T04:13:19;13.40;;;12.30;;
3297;SDS011;1661;53.572;10.174;2023-06-19T04:15:47;13.57;;;12.10;;
3297;SDS011;1661;53.572;10.174;2023-06-19T04:18:14;13.70;;;12.40;;
3297;SDS011;1661;53.572;10.174;2023-06-19T04:20:40;13.73;;;12.63;;
3297;SDS011;1661;53.572;10.174;2023-06-19T04:23:10;18.70;;;12.87;;
3297;SDS011;1661;53.572;10.174;2023-06-19T04:25:37;18.83;;;12.20;;
3297;SDS011;1661;53.572;10.174;2023-06-19T04:28:03;12.47;;;11.27;;
3297;SDS011;1661;53.572;10.174;2023-06-19T04:30:30;15.53;;;13.07;;
3297;SDS011;1661;53.572;10.174;2023-06-19T04:32:59;13.33;;;11.93;;
3297;SDS011;1661;53.572;10.174;2023-06-19T04:35:25;14.87;;;13.57;;
3297;SDS011;1661;53.572;10.174;2023-06-19T04:37:52;16.63;;;11.80;;
3297;SDS011;1661;53.572;10.174;2023-06-19T04:40:19;13.07;;;11.97;;
3297;SDS011;1661;53.572;10.174;2023-06-19T04:42:46;15.10;;;13.63;;
3297;SDS011;1661;53.572;10.174;2023-06-19T04:45:13;13.37;;;12.00;;
3297;SDS011;1661;53.572;10.174;2023-06-19T04:47:40;14.70;;;13.10;;
3297;SDS011;1661;53.572;10.174;2023-06-19T04:50:11;15.20;;;13.60;;
3297;SDS011;1661;53.572;10.174;2023-06-19T04:52:37;15.67;;;13.60;;
3297;SDS011;1661;53.572;10.174;2023-06-19T04:55:05;12.80;;;11.70;;
3297;SDS011;1661;53.572;10.174;2023-06-19T04:57:34;14.33;;;13.00;;
3297;SDS011;1661;53.572;10.174;2023-06-19T05:00:02;15.07;;;13.77;;
3297;SDS011;1661;53.572;10.174;2023-06-19T05:02:31;16.10;;;14.70;;
3297;SDS011;1661;53.572;10.174;2023-06-19T05:04:58;18.30;;;13.10;;
3297;SDS011;1661;53.572;10.174;2023-06-19T05:07:29;15.60;;;14.00;;
3297;SDS011;1661;53.572;10.174;2023-06-19T05:09:56;17.20;;;13.33;;
3297;SDS011;1661;53.572;10.174;2023-06-19T05:12:23;14.60;;;12.87;;
3297;SDS011;1661;53.572;10.174;2023-06-19T05:14:50;13.50;;;12.13;;
3297;SDS011;1661;53.572;10.174;2023-06-19T05:17:16;19.37;;;13.97;;
3297;SDS011;1661;53.572;10.174;2023-06-19T05:19:43;13.90;;;12.50;;
3297;SDS011;1661;53.572;10.174;2023-06-19T05:22:10;15.00;;;13.60;;
3297;SDS011;1661;53.572;10.174;2023-06-19T05:24:38;13.63;;;12.33;;
3297;SDS011;1661;53.572;10.174;2023-06-19T05:27:05;14.83;;;12.23;;
3297;SDS011;1661;53.572;10.174;2023-06-19T05:29:32;14.40;;;13.03;;
3297;SDS011;1661;53.572;10.174;2023-06-19T05:31:59;20.23;;;14.60;;
3297;SDS011;1661;53.572;10.174;2023-06-19T05:34:26;15.27;;;13.40;;
3297;SDS011;1661;53.572;10.174;2023-06-19T05:36:53;20.30;;;13.20;;
3297;SDS011;1661;53.572;10.174;2023-06-19T05:39:19;14.77;;;13.37;;
3297;SDS011;1661;53.572;10.174;2023-06-19T05:41:48;14.87;;;13.47;;
3297;SDS011;1661;53.572;10.174;2023-06-19T05:44:14;13.77;;;12.33;;
3297;SDS011;1661;53.572;10.174;2023-06-19T05:46:41;22.40;;;14.37;;
3297;SDS011;1661;53.572;10.174;2023-06-19T05:49:09;17.50;;;13.43;;
3297;SDS011;1661;53.572;10.174;2023-06-19T05:51:35;15.07;;;13.17;;
3297;SDS011;1661;53.572;10.174;2023-06-19T05:54:02;14.60;;;13.20;;
3297;SDS011;1661;53.572;10.174;2023-06-19T05:56:29;13.20;;;12.00;;
3297;SDS011;1661;53.572;10.174;2023-06-19T05:58:59;15.67;;;14.10;;
3297;SDS011;1661;53.572;10.174;2023-06-19T06:01:26;14.97;;;13.57;;
3297;SDS011;1661;53.572;10.174;2023-06-19T06:03:53;14.60;;;13.20;;
3297;SDS011;1661;53.572;10.174;2023-06-19T06:06:20;15.73;;;14.23;;
3297;SDS011;1661;53.572;10.174;2023-06-19T06:08:47;14.87;;;13.57;;
3297;SDS011;1661;53.572;10.174;2023-06-19T06:11:14;17.57;;;14.47;;
3297;SDS011;1661;53.572;10.174;2023-06-19T06:13:41;13.60;;;12.20;;
3297;SDS011;1661;53.572;10.174;2023-06-19T06:16:09;14.83;;;13.33;;
3297;SDS011;1661;53.572;10.174;2023-06-19T06:18:36;14.93;;;13.60;;
3297;SDS011;1661;53.572;10.174;2023-06-19T06:21:02;14.40;;;12.10;;
3297;SDS011;1661;53.572;10.174;2023-06-19T06:23:29;14.70;;;13.40;;
3297;SDS011;1661;53.572;10.174;2023-06-19T06:25:56;14.10;;;12.90;;
3297;SDS011;1661;53.572;10.174;2023-06-19T06:28:27;15.77;;;14.17;;
3297;SDS011;1661;53.572;10.174;2023-06-19T06:30:54;13.33;;;12.13;;
3297;SDS011;1661;53.572;10.174;2023-06-19T06:33:22;14.90;;;13.50;;
3297;SDS011;1661;53.572;10.174;2023-06-19T06:35:49;15.90;;;14.20;;
3297;SDS011;1661;53.572;10.174;2023-06-19T06:38:16;15.57;;;14.27;;
3297;SDS011;1661;53.572;10.174;2023-06-19T06:40:43;14.10;;;12.90;;
3297;SDS011;1661;53.572;10.174;2023-06-19T06:43:10;15.37;;;13.87;;
3297;SDS011;1661;53.572;10.174;2023-06-19T06:45:37;15.87;;;14.27;;
3297;SDS011;1661;53.572;10.174;2023-06-19T06:48:04;16.07;;;14.63;;
3297;SDS011;1661;53.572;10.174;2023-06-19T06:50:34;17.57;;;15.60;;
3297;SDS011;1661;53.572;10.174;2023-06-19T06:53:01;14.53;;;13.20;;
3297;SDS011;1661;53.572;10.174;2023-06-19T06:55:28;15.63;;;14.23;;
3297;SDS011;1661;53.572;10.174;2023-06-19T06:57:54;16.03;;;14.53;;
3297;SDS011;1661;53.572;10.174;2023-06-19T07:00:21;16.67;;;15.17;;
3297;SDS011;1661;53.572;10.174;2023-06-19T07:02:48;17.33;;;14.63;;
3297;SDS011;1661;53.572;10.174;2023-06-19T07:05:16;15.40;;;13.80;;
3297;SDS011;1661;53.572;10.174;2023-06-19T07:07:44;16.67;;;15.07;;
3297;SDS011;1661;53.572;10.174;2023-06-19T07:10:11;16.20;;;14.87;;
3297;SDS011;1661;53.572;10.174;2023-06-19T07:12:47;17.50;;;15.73;;
3297;SDS011;1661;53.572;10.174;2023-06-19T07:15:15;18.70;;;16.00;;
3297;SDS011;1661;53.572;10.174;2023-06-19T07:17:42;16.00;;;14.50;;
3297;SDS011;1661;53.572;10.174;2023-06-19T07:20:10;18.43;;;16.70;;
3297;SDS011;1661;53.572;10.174;2023-06-19T07:22:37;19.00;;;14.60;;
3297;SDS011;1661;53.572;10.174;2023-06-19T07:25:06;17.13;;;15.67;;
3297;SDS011;1661;53.572;10.174;2023-06-19T07:27:36;16.87;;;15.20;;
3297;SDS011;1661;53.572;10.174;2023-06-19T07:30:03;16.23;;;14.73;;
3297;SDS011;1661;53.572;10.174;2023-06-19T07:32:31;15.13;;;13.70;;
3297;SDS011;1661;53.572;10.174;2023-06-19T07:34:57;18.07;;;16.20;;
3297;SDS011;1661;53.572;10.174;2023-06-19T07:37:25;18.03;;;15.87;;
3297;SDS011;1661;53.572;10.174;2023-06-19T07:39:52;16.67;;;15.20;;
3297;SDS011;1661;53.572;10.174;2023-06-19T07:42:20;16.20;;;14.90;;
3297;SDS011;1661;53.572;10.174;2023-06-19T07:44:47;16.60;;;15.10;;
3297;SDS011;1661;53.572;10.174;2023-06-19T07:47:15;17.47;;;15.87;;
3297;SDS011;1661;53.572;10.174;2023-06-19T07:49:43;18.97;;;17.17;;
3297;SDS011;1661;53.572;10.174;2023-06-19T07:52:10;17.33;;;15.73;;
3297;SDS011;1661;53.572;10.174;2023-06-19T07:54:47;16.50;;;15.13;;
3297;SDS011;1661;53.572;10.174;2023-06-19T07:57:17;16.77;;;15.27;;
3297;SDS011;1661;53.572;10.174;2023-06-19T07:59:45;18.33;;;16.60;;
3297;SDS011;1661;53.572;10.174;2023-06-19T08:02:12;15.63;;;14.20;;
3297;SDS011;1661;53.572;10.174;2023-06-19T08:04:39;18.13;;;16.33;;
3297;SDS011;1661;53.572;10.174;2023-06-19T08:07:06;15.63;;;14.23;;
3297;SDS011;1661;53.572;10.174;2023-06-19T08:09:33;18.00;;;16.27;;
3297;SDS011;1661;53.572;10.174;2023-06-19T08:12:00;19.30;;;15.30;;
3297;SDS011;1661;53.572;10.174;2023-06-19T08:14:27;24.50;;;16.20;;
3297;SDS011;1661;53.572;10.174;2023-06-19T08:16:55;17.20;;;15.50;;
3297;SDS011;1661;53.572;10.174;2023-06-19T08:19:22;17.37;;;15.90;;
3297;SDS011;1661;53.572;10.174;2023-06-19T08:21:49;21.00;;;16.10;;
3297;SDS011;1661;53.572;10.174;2023-06-19T08:24:15;18.23;;;15.43;;
3297;SDS011;1661;53.572;10.174;2023-06-19T08:26:42;29.70;;;16.03;;
3297;SDS011;1661;53.572;10.174;2023-06-19T08:29:09;17.90;;;15.37;;
3297;SDS011;1661;53.572;10.174;2023-06-19T08:31:36;16.33;;;14.73;;
3297;SDS011;1661;53.572;10.174;2023-06-19T08:34:04;16.17;;;14.77;;
3297;SDS011;1661;53.572;10.174;2023-06-19T08:36:34;16.27;;;14.97;;
3297;SDS011;1661;53.572;10.174;2023-06-19T08:39:02;16.50;;;14.77;;
3297;SDS011;1661;53.572;10.174;2023-06-19T08:41:33;17.00;;;15.50;;
3297;SDS011;1661;53.572;10.174;2023-06-19T08:44:00;16.90;;;15.37;;
3297;SDS011;1661;53.572;10.174;2023-06-19T08:46:28;26.10;;;16.47;;
3297;SDS011;1661;53.572;10.174;2023-06-19T08:48:55;17.57;;;15.77;;
3297;SDS011;1661;53.572;10.174;2023-06-19T08:51:23;16.30;;;14.70;;
3297;SDS011;1661;53.572;10.174;2023-06-19T08:53:54;16.47;;;15.07;;
3297;SDS011;1661;53.572;10.174;2023-06-19T08:56:22;16.00;;;14.40;;
3297;SDS011;1661;53.572;10.174;2023-06-19T08:58:49;16.33;;;14.93;;
3297;SDS011;1661;53.572;10.174;2023-06-19T09:01:17;17.87;;;16.20;;
3297;SDS011;1661;53.572;10.174;2023-06-19T09:03:45;17.13;;;15.63;;
3297;SDS011;1661;53.572;10.174;2023-06-19T09:06:14;15.73;;;14.33;;
3297;SDS011;1661;53.572;10.174;2023-06-19T09:08:43;15.63;;;14.33;;
3297;SDS011;1661;53.572;10.174;2023-06-19T09:11:10;14.30;;;13.20;;
3297;SDS011;1661;53.572;10.174;2023-06-19T09:13:38;15.20;;;13.80;;
3297;SDS011;1661;53.572;10.174;2023-06-19T09:16:05;15.83;;;14.20;;
3297;SDS011;1661;53.572;10.174;2023-06-19T09:18:42;14.63;;;13.30;;
3297;SDS011;1661;53.572;10.174;2023-06-19T09:21:14;14.33;;;13.13;;
3297;SDS011;1661;53.572;10.174;2023-06-19T09:23:44;15.90;;;14.60;;
3297;SDS011;1661;53.572;10.174;2023-06-19T09:26:13;17.53;;;14.57;;
3297;SDS011;1661;53.572;10.174;2023-06-19T09:28:43;13.97;;;12.57;;
3297;SDS011;1661;53.572;10.174;2023-06-19T09:31:10;18.40;;;14.20;;
3297;SDS011;1661;53.572;10.174;2023-06-19T09:33:37;15.93;;;14.33;;
3297;SDS011;1661;53.572;10.174;2023-06-19T09:36:05;15.03;;;13.70;;
3297;SDS011;1661;53.572;10.174;2023-06-19T09:38:33;12.77;;;11.67;;
3297;SDS011;1661;53.572;10.174;2023-06-19T09:41:06;14.77;;;13.57;;
3297;SDS011;1661;53.572;10.174;2023-06-19T09:43:34;15.77;;;14.20;;
3297;SDS011;1661;53.572;10.174;2023-06-19T09:46:03;16.50;;;13.07;;
3297;SDS011;1661;53.572;10.174;2023-06-19T09:48:31;13.67;;;12.67;;
3297;SDS011;1661;53.572;10.174;2023-06-19T09:51:00;14.67;;;13.37;;
3297;SDS011;1661;53.572;10.174;2023-06-19T09:53:35;13.33;;;12.23;;
3297;SDS011;1661;53.572;10.174;2023-06-19T09:56:03;15.53;;;14.23;;
3297;SDS011;1661;53.572;10.174;2023-06-19T09:58:32;18.67;;;14.57;;
3297;SDS011;1661;53.572;10.174;2023-06-19T10:00:58;17.13;;;14.37;;
3297;SDS011;1661;53.572;10.174;2023-06-19T10:03:30;13.90;;;12.60;;
3297;SDS011;1661;53.572;10.174;2023-06-19T10:05:59;14.87;;;13.53;;
3297;SDS011;1661;53.572;10.174;2023-06-19T10:08:27;15.17;;;13.67;;
3297;SDS011;1661;53.572;10.174;2023-06-19T10:10:56;13.57;;;12.47;;
3297;SDS011;1661;53.572;10.174;2023-06-19T10:13:32;13.93;;;12.70;;
3297;SDS011;1661;53.572;10.174;2023-06-19T10:15:59;14.70;;;12.90;;
3297;SDS011;1661;53.572;10.174;2023-06-19T10:18:27;14.50;;;13.30;;
3297;SDS011;1661;53.572;10.174;2023-06-19T10:20:55;14.73;;;13.10;;
3297;SDS011;1661;53.572;10.174;2023-06-19T10:23:23;16.87;;;15.37;;
3297;SDS011;1661;53.572;10.174;2023-06-19T10:25:57;14.00;;;12.90;;
3297;SDS011;1661;53.572;10.174;2023-06-19T10:28:26;13.67;;;12.60;;
3297;SDS011;1661;53.572;10.174;2023-06-19T10:30:56;14.97;;;13.70;;
3297;SDS011;1661;53.572;10.174;2023-06-19T10:33:26;15.13;;;13.70;;
3297;SDS011;1661;53.572;10.174;2023-06-19T10:35:54;14.93;;;13.83;;
3297;SDS011;1661;53.572;10.174;2023-06-19T10:38:21;14.83;;;13.53;;
3297;SDS011;1661;53.572;10.174;2023-06-19T10:40:48;17.90;;;14.80;;
3297;SDS011;1661;53.572;10.174;2023-06-19T10:43:19;13.87;;;12.63;;
3297;SDS011;1661;53.572;10.174;2023-06-19T10:45:47;15.63;;;14.03;;
3297;SDS011;1661;53.572;10.174;2023-06-19T10:48:19;15.13;;;13.57;;
3297;SDS011;1661;53.572;10.174;2023-06-19T10:50:47;14.87;;;13.73;;
3297;SDS011;1661;53.572;10.174;2023-06-19T10:53:22;14.47;;;13.27;;
3297;SDS011;1661;53.572;10.174;2023-06-19T10:55:54;14.83;;;13.67;;
3297;SDS011;1661;53.572;10.174;2023-06-19T10:58:21;16.20;;;14.63;;
3297;SDS011;1661;53.572;10.174;2023-06-19T11:00:49;20.43;;;15.17;;
3297;SDS011;1661;53.572;10.174;2023-06-19T11:03:15;15.07;;;13.83;;
3297;SDS011;1661;53.572;10.174;2023-06-19T11:05:44;16.47;;;13.80;;
3297;SDS011;1661;53.572;10.174;2023-06-19T11:08:16;15.87;;;14.57;;
3297;SDS011;1661;53.572;10.174;2023-06-19T11:10:44;16.80;;;15.30;;
3297;SDS011;1661;53.572;10.174;2023-06-19T11:13:13;15.17;;;13.90;;
3297;SDS011;1661;53.572;10.174;2023-06-19T11:15:41;15.10;;;13.67;;
3297;SDS011;1661;53.572;10.174;2023-06-19T11:18:08;16.00;;;14.37;;
3297;SDS011;1661;53.572;10.174;2023-06-19T11:20:44;15.77;;;12.70;;
3297;SDS011;1661;53.572;10.174;2023-06-19T11:23:13;15.50;;;14.00;;
3297;SDS011;1661;53.572;10.174;2023-06-19T11:25:41;14.57;;;13.47;;
3297;SDS011;1661;53.572;10.174;2023-06-19T11:28:11;14.47;;;13.30;;
3297;SDS011;1661;53.572;10.174;2023-06-19T11:30:39;14.90;;;13.70;;
3297;SDS011;1661;53.572;10.174;2023-06-19T11:33:14;13.87;;;12.47;;
3297;SDS011;1661;53.572;10.174;2023-06-19T11:35:49;15.40;;;13.87;;
3297;SDS011;1661;53.572;10.174;2023-06-19T11:38:17;16.47;;;14.53;;
3297;SDS011;1661;53.572;10.174;2023-06-19T11:40:45;15.67;;;14.10;;
3297;SDS011;1661;53.572;10.174;2023-06-19T11:43:12;13.60;;;12.40;;
3297;SDS011;1661;53.572;10.174;2023-06-19T11:45:49;23.00;;;12.63;;
3297;SDS011;1661;53.572;10.174;2023-06-19T11:48:21;14.60;;;13.20;;
3297;SDS011;1661;53.572;10.174;2023-06-19T11:50:51;20.23;;;14.73;;
3297;SDS011;1661;53.572;10.174;2023-06-19T11:53:18;15.17;;;13.77;;
3297;SDS011;1661;53.572;10.174;2023-06-19T11:55:45;13.50;;;12.30;;
3297;SDS011;1661;53.572;10.174;2023-06-19T11:58:12;13.23;;;12.13;;
3297;SDS011;1661;53.572;10.174;2023-06-19T12:00:40;13.80;;;12.60;;
3297;SDS011;1661;53.572;10.174;2023-06-19T12:03:09;13.40;;;12.50;;
3297;SDS011;1661;53.572;10.174;2023-06-19T12:05:36;13.40;;;12.10;;
3297;SDS011;1661;53.572;10.174;2023-06-19T12:08:05;11.57;;;10.67;;
3297;SDS011;1661;53.572;10.174;2023-06-19T12:10:32;12.60;;;11.50;;
3297;SDS011;1661;53.572;10.174;2023-06-19T12:12:59;14.63;;;13.20;;
3297;SDS011;1661;53.572;10.174;2023-06-19T12:15:26;17.17;;;13.17;;
3297;SDS011;1661;53.572;10.174;2023-06-19T12:17:52;11.93;;;11.03;;
3297;SDS011;1661;53.572;10.174;2023-06-19T12:20:22;15.33;;;11.90;;
3297;SDS011;1661;53.572;10.174;2023-06-19T12:22:49;12.23;;;10.97;;
3297;SDS011;1661;53.572;10.174;2023-06-19T12:25:18;12.23;;;11.33;;
3297;SDS011;1661;53.572;10.174;2023-06-19T12:27:45;12.90;;;11.67;;
3297;SDS011;1661;53.572;10.174;2023-06-19T12:30:12;11.97;;;10.97;;
3297;SDS011;1661;53.572;10.174;2023-06-19T12:32:39;12.10;;;11.10;;
3297;SDS011;1661;53.572;10.174;2023-06-19T12:35:06;12.00;;;10.87;;
3297;SDS011;1661;53.572;10.174;2023-06-19T12:37:34;10.47;;;9.57;;
3297;SDS011;1661;53.572;10.174;2023-06-19T12:40:01;9.67;;;8.97;;
3297;SDS011;1661;53.572;10.174;2023-06-19T12:42:34;16.97;;;9.40;;
3297;SDS011;1661;53.572;10.174;2023-06-19T12:45:02;10.40;;;9.43;;
3297;SDS011;1661;53.572;10.174;2023-06-19T12:47:30;10.53;;;9.63;;
3297;SDS011;1661;53.572;10.174;2023-06-19T12:49:57;10.93;;;10.03;;
3297;SDS011;1661;53.572;10.174;2023-06-19T12:52:23;11.60;;;9.67;;
3297;SDS011;1661;53.572;10.174;2023-06-19T12:54:50;10.47;;;9.50;;
3297;SDS011;1661;53.572;10.174;2023-06-19T12:57:17;9.43;;;8.83;;
3297;SDS011;1661;53.572;10.174;2023-06-19T12:59:45;8.80;;;7.97;;
3297;SDS011;1661;53.572;10.174;2023-06-19T13:02:12;9.43;;;8.73;;
3297;SDS011;1661;53.572;10.174;2023-06-19T13:04:39;9.03;;;8.23;;
3297;SDS011;1661;53.572;10.174;2023-06-19T13:07:06;12.20;;;8.97;;
3297;SDS011;1661;53.572;10.174;2023-06-19T13:09:33;9.63;;;8.90;;
3297;SDS011;1661;53.572;10.174;2023-06-19T13:12:00;9.63;;;8.90;;
3297;SDS011;1661;53.572;10.174;2023-06-19T13:14:27;10.13;;;8.97;;
3297;SDS011;1661;53.572;10.174;2023-06-19T13:16:55;10.00;;;9.13;;
3297;SDS011;1661;53.572;10.174;2023-06-19T13:19:22;8.87;;;8.17;;
3297;SDS011;1661;53.572;10.174;2023-06-19T13:21:49;12.23;;;11.00;;
3297;SDS011;1661;53.572;10.174;2023-06-19T13:24:17;13.70;;;8.03;;
3297;SDS011;1661;53.572;10.174;2023-06-19T13:26:43;10.90;;;8.73;;
3297;SDS011;1661;53.572;10.174;2023-06-19T13:29:10;12.03;;;8.70;;
3297;SDS011;1661;53.572;10.174;2023-06-19T13:31:37;13.27;;;9.33;;
3297;SDS011;1661;53.572;10.174;2023-06-19T13:34:06;8.77;;;7.77;;
3297;SDS011;1661;53.572;10.174;2023-06-19T13:36:32;8.37;;;7.67;;
3297;SDS011;1661;53.572;10.174;2023-06-19T13:38:59;8.67;;;7.83;;
3297;SDS011;1661;53.572;10.174;2023-06-19T13:41:26;8.70;;;8.00;;
3297;SDS011;1661;53.572;10.174;2023-06-19T13:43:57;7.53;;;6.90;;
3297;SDS011;1661;53.572;10.174;2023-06-19T13:46:24;8.23;;;7.37;;
3297;SDS011;1661;53.572;10.174;2023-06-19T13:48:51;7.63;;;5.60;;
3297;SDS011;1661;53.572;10.174;2023-06-19T13:51:20;7.07;;;6.37;;
3297;SDS011;1661;53.572;10.174;2023-06-19T13:53:48;8.20;;;7.40;;
3297;SDS011;1661;53.572;10.174;2023-06-19T13:56:15;11.43;;;6.87;;
3297;SDS011;1661;53.572;10.174;2023-06-19T13:58:42;7.47;;;6.67;;
3297;SDS011;1661;53.572;10.174;2023-06-19T14:01:09;7.27;;;6.73;;
3297;SDS011;1661;53.572;10.174;2023-06-19T14:03:37;8.70;;;8.07;;
3297;SDS011;1661;53.572;10.174;2023-06-19T14:06:04;11.47;;;6.80;;
3297;SDS011;1661;53.572;10.174;2023-06-19T14:08:33;8.70;;;8.10;;
3297;SDS011;1661;53.572;10.174;2023-06-19T14:10:59;7.83;;;6.90;;
3297;SDS011;1661;53.572;10.174;2023-06-19T14:13:26;7.07;;;6.53;;
3297;SDS011;1661;53.572;10.174;2023-06-19T14:15:54;9.93;;;8.93;;
3297;SDS011;1661;53.572;10.174;2023-06-19T14:18:21;16.50;;;7.40;;
3297;SDS011;1661;53.572;10.174;2023-06-19T14:20:48;7.80;;;7.20;;
3297;SDS011;1661;53.572;10.174;2023-06-19T14:23:14;8.03;;;7.33;;
3297;SDS011;1661;53.572;10.174;2023-06-19T14:25:43;8.70;;;7.53;;
3297;SDS011;1661;53.572;10.174;2023-06-19T14:28:09;8.83;;;7.80;;
3297;SDS011;1661;53.572;10.174;2023-06-19T14:30:39;9.87;;;6.50;;
3297;SDS011;1661;53.572;10.174;2023-06-19T14:33:05;6.70;;;6.20;;
3297;SDS011;1661;53.572;10.174;2023-06-19T14:35:35;7.53;;;6.83;;
3297;SDS011;1661;53.572;10.174;2023-06-19T14:38:02;9.60;;;7.13;;
3297;SDS011;1661;53.572;10.174;2023-06-19T14:40:29;8.23;;;7.63;;
3297;SDS011;1661;53.572;10.174;2023-06-19T14:42:57;9.00;;;7.90;;
3297;SDS011;1661;53.572;10.174;2023-06-19T14:45:24;11.47;;;6.50;;